Time;durP1;ratioP1;P1;durP2;ratioP2;P2;SDS_P1;SDS_P2;PMS_P1;PMS_P2;Temp;Humidity;BMP_temperature;BMP_pressure;BME280_temperature;BME280_humidity;BME280_pressure;Samples;Min_cycle;Max_cycle;Signal;HPM_P1;HPM_P2
2022/05/14 00:00:21;;;;;;;5.72;1.65;;;;;;;13.07;70.04;100629.31;5161195;27;20057;-82
2022/05/14 00:02:48;;;;;;;6.75;1.52;;;;;;;13.08;70.30;100620.13;5161163;27;20030;-82
2022/05/14 00:05:13;;;;;;;4.70;1.45;;;;;;;13.04;70.16;100619.75;5161506;27;20050;-82
2022/05/14 00:07:39;;;;;;;4.53;1.60;;;;;;;12.99;70.85;100621.44;5143462;27;20031;-82
2022/05/14 00:10:06;;;;;;;6.77;1.97;;;;;;;12.98;70.47;100619.78;5142574;27;20031;-82
2022/05/14 00:15:16;;;;;;;6.00;2.30;;;;;;;12.94;70.31;100619.38;5160242;27;20075;-82
2022/05/14 00:17:54;;;;;;;9.10;2.08;;;;;;;12.93;70.87;100622.28;5142150;27;20375;-82
2022/05/14 00:20:23;;;;;;;6.88;1.98;;;;;;;12.89;70.71;100623.78;5142676;27;20031;-82
2022/05/14 00:22:52;;;;;;;4.82;1.90;;;;;;;12.81;71.21;100620.25;5159602;27;20471;-81
2022/05/14 00:25:25;;;;;;;6.07;2.08;;;;;;;12.85;71.37;100626.09;5140937;27;20026;-83
2022/05/14 00:27:50;;;;;;;4.40;2.00;;;;;;;12.88;71.08;100624.81;5160266;27;20030;-82
2022/05/14 00:30:23;;;;;;;6.47;2.78;;;;;;;12.82;71.50;100619.22;5160561;27;20037;-83
2022/05/14 00:32:48;;;;;;;8.85;3.15;;;;;;;12.75;71.61;100617.56;5160772;27;20084;-82
2022/05/14 00:35:21;;;;;;;5.03;2.28;;;;;;;12.70;71.97;100610.13;5161175;27;20031;-83
2022/05/14 00:37:46;;;;;;;6.95;2.75;;;;;;;12.68;72.23;100614.91;5163920;27;20031;-83
2022/05/14 00:40:24;;;;;;;;;;;;;;;12.65;72.03;100620.75;5146208;27;20026;-82
2022/05/14 00:42:52;;;;;;;6.70;2.63;;;;;;;12.62;72.35;100613.06;5145642;27;19911;-82
2022/05/14 00:45:18;;;;;;;9.13;3.25;;;;;;;12.68;72.25;100604.09;5164838;27;20140;-83
2022/05/14 00:47:48;;;;;;;5.20;2.78;;;;;;;12.69;72.31;100610.34;5164588;27;20480;-84
2022/05/14 00:50:35;;;;;;;8.68;2.97;;;;;;;12.63;72.31;100605.78;5164595;27;20050;-83
2022/05/14 00:53:08;;;;;;;10.32;2.90;;;;;;;12.63;72.21;100606.63;5146209;27;20091;-84
2022/05/14 00:55:36;;;;;;;6.70;2.67;;;;;;;12.76;71.44;100609.25;5145799;27;20049;-83
2022/05/14 00:58:03;;;;;;;7.05;2.90;;;;;;;12.67;71.51;100609.72;5164260;27;20043;-83
2022/05/14 01:00:29;;;;;;;5.18;2.55;;;;;;;12.63;71.67;100612.03;5164125;27;20038;-83
2022/05/14 01:02:54;;;;;;;;;;;;;;;12.52;72.26;100610.81;5164365;27;20399;-83
2022/05/14 01:05:20;;;;;;;6.53;2.28;;;;;;;12.55;72.31;100611.41;5164086;27;19931;-83
2022/05/14 01:07:49;;;;;;;;;;;;;;;12.47;72.51;100602.50;5164566;27;20022;-83
2022/05/14 01:10:18;;;;;;;8.90;2.17;;;;;;;12.46;72.36;100611.66;5164119;27;19932;-83
2022/05/14 01:12:52;;;;;;;6.90;2.15;;;;;;;12.42;72.46;100601.47;5164717;27;20391;-83
2022/05/14 01:15:23;;;;;;;6.68;2.08;;;;;;;12.47;72.36;100605.22;5145516;27;20046;-84
2022/05/14 01:17:48;;;;;;;5.40;2.00;;;;;;;12.47;72.13;100605.22;5163778;27;20030;-81
2022/05/14 01:20:16;;;;;;;4.35;2.25;;;;;;;12.64;71.71;100600.16;5164178;27;20109;-81
2022/05/14 01:22:59;;;;;;;6.95;2.20;;;;;;;12.58;71.51;100600.19;5164186;27;20080;-83
2022/05/14 01:28:21;;;;;;;5.65;2.00;;;;;;;12.58;71.86;100602.88;5163596;27;20091;-85
2022/05/14 01:30:51;;;;;;;9.53;1.77;;;;;;;12.48;72.29;100603.34;5162246;27;20046;-83
2022/05/14 01:33:17;;;;;;;6.93;2.95;;;;;;;12.54;71.51;100602.47;5163082;27;20261;-83
2022/05/14 01:35:43;;;;;;;5.43;2.03;;;;;;;12.52;71.53;100608.13;5163404;27;20045;-84
2022/05/14 01:38:10;;;;;;;4.40;1.83;;;;;;;12.43;72.75;100603.13;5163565;27;20042;-84
2022/05/14 01:40:35;;;;;;;6.50;2.00;;;;;;;12.41;72.08;100603.34;5145396;27;20035;-82
2022/05/14 01:43:00;;;;;;;4.87;1.80;;;;;;;12.40;71.87;100611.66;5163833;27;20073;-83
2022/05/14 01:45:26;;;;;;;4.93;1.52;;;;;;;12.40;72.31;100606.25;5144134;27;20022;-82
2022/05/14 01:47:52;;;;;;;6.15;1.85;;;;;;;12.35;72.18;100614.19;5162095;27;20074;-83
2022/05/14 01:50:17;;;;;;;5.65;1.90;;;;;;;12.34;72.63;100612.53;5162195;27;20031;-82
2022/05/14 01:52:43;;;;;;;5.93;2.05;;;;;;;12.33;72.62;100608.19;5161652;27;20071;-83
2022/05/14 01:55:08;;;;;;;6.60;1.90;;;;;;;12.25;73.26;100608.38;5142822;27;20022;-83
2022/05/14 01:57:33;;;;;;;3.55;1.60;;;;;;;12.24;73.22;100617.53;5143791;27;20176;-83
2022/05/14 01:59:59;;;;;;;3.77;1.70;;;;;;;12.20;73.57;100610.88;5162803;27;20354;-83
2022/05/14 02:02:24;;;;;;;5.70;1.90;;;;;;;12.18;72.97;100604.88;5163146;27;20023;-82
2022/05/14 02:04:49;;;;;;;4.03;1.70;;;;;;;12.18;72.84;100609.22;5162734;27;20031;-83
2022/05/14 02:07:15;;;;;;;4.73;1.90;;;;;;;12.15;73.23;100598.03;5162401;27;20122;-83
2022/05/14 02:09:41;;;;;;;6.97;1.88;;;;;;;12.23;73.10;100608.59;5161786;27;20034;-83
2022/05/14 02:12:07;;;;;;;6.35;1.90;;;;;;;12.21;72.75;100601.72;5144023;27;20030;-83
2022/05/14 02:14:32;;;;;;;4.88;1.70;;;;;;;12.37;72.53;100603.97;5162782;27;20038;-83
2022/05/14 02:16:58;;;;;;;11.18;2.10;;;;;;;12.33;72.28;100609.00;5162660;27;20759;-83
2022/05/14 02:19:23;;;;;;;3.70;1.43;;;;;;;12.28;72.63;100607.97;5162504;27;20022;-84
2022/05/14 02:21:49;;;;;;;5.28;1.92;;;;;;;12.25;72.73;100605.69;5162093;27;20252;-83
2022/05/14 02:24:14;;;;;;;5.40;1.98;;;;;;;12.25;72.32;100605.69;5162983;27;20039;-83
2022/05/14 02:26:40;;;;;;;4.50;1.90;;;;;;;12.18;72.83;100606.50;5163063;27;20023;-83
2022/05/14 02:29:05;;;;;;;8.88;2.67;;;;;;;12.10;72.86;100604.06;5163290;27;20034;-83
2022/05/14 02:31:31;;;;;;;7.70;2.23;;;;;;;12.07;72.69;100598.25;5163392;27;20538;-82
2022/05/14 02:33:57;;;;;;;6.45;2.03;;;;;;;11.94;73.06;100603.66;5162752;27;20287;-83
2022/05/14 02:36:22;;;;;;;6.90;2.65;;;;;;;11.82;73.41;100604.28;5164312;27;20083;-83
2022/05/14 02:38:47;;;;;;;5.18;2.08;;;;;;;11.81;73.39;100607.22;5145189;27;20030;-83
2022/05/14 02:41:14;;;;;;;4.38;1.70;;;;;;;11.77;73.31;100614.06;5144297;27;20453;-83
2022/05/14 02:43:40;;;;;;;3.75;1.70;;;;;;;11.70;73.36;100618.59;5162760;27;20426;-83
2022/05/14 02:46:06;;;;;;;5.43;1.58;;;;;;;11.64;74.14;100614.03;5162387;27;20098;-83
2022/05/14 02:48:32;;;;;;;4.53;1.98;;;;;;;11.61;74.24;100625.25;5162151;27;20046;-83
2022/05/14 02:50:58;;;;;;;;;;;;;;;11.56;74.56;100617.75;5162168;27;20030;-83
2022/05/14 02:53:24;;;;;;;5.15;1.63;;;;;;;11.49;74.35;100623.13;5144160;27;19918;-83
2022/05/14 02:55:49;;;;;;;4.20;1.85;;;;;;;11.44;74.85;100619.41;5143601;27;20387;-83
2022/05/14 02:59:06;;;;;;;6.45;1.90;;;;;;;11.40;75.07;100626.25;5161112;27;20047;-83
2022/05/14 03:01:00;;;;;;;7.10;1.55;;;;;;;11.36;75.48;100620.44;5162725;27;20068;-83
2022/05/14 03:03:28;;;;;;;4.43;1.73;;;;;;;11.42;74.84;100619.63;5162222;27;20126;-83
2022/05/14 03:05:54;;;;;;;4.28;1.92;;;;;;;11.48;74.48;100615.25;5143555;27;20038;-83
2022/05/14 03:08:19;;;;;;;5.40;2.23;;;;;;;11.41;74.59;100622.53;5162309;27;20159;-83
2022/05/14 03:10:44;;;;;;;4.00;1.90;;;;;;;11.33;74.89;100620.00;5162766;27;20030;-83
2022/05/14 03:13:09;;;;;;;3.93;1.67;;;;;;;11.35;74.95;100621.47;5161403;27;20048;-83
2022/05/14 03:15:35;;;;;;;6.27;1.60;;;;;;;11.40;74.35;100616.28;5161743;27;20370;-82
2022/05/14 03:18:00;;;;;;;4.40;1.55;;;;;;;11.36;74.46;100609.63;5144282;27;20068;-81
2022/05/14 03:20:26;;;;;;;4.10;1.83;;;;;;;11.25;74.79;100617.50;5163083;27;20030;-84
2022/05/14 03:22:52;;;;;;;5.80;1.65;;;;;;;11.24;74.20;100610.44;5143882;27;20030;-83
2022/05/14 03:25:17;;;;;;;;;;;;;;;11.17;75.06;100618.53;5163674;27;20038;-83
2022/05/14 03:27:42;;;;;;;5.13;1.93;;;;;;;11.13;74.81;100611.88;5163279;27;19917;-85
2022/05/14 03:30:08;;;;;;;3.97;1.60;;;;;;;11.07;74.80;100615.41;5162714;27;20272;-83
2022/05/14 03:32:33;;;;;;;5.25;1.60;;;;;;;11.06;74.50;100611.88;5144544;27;20459;-84
2022/05/14 03:35:00;;;;;;;6.05;2.20;;;;;;;11.10;74.60;100618.53;5162295;27;20031;-84
2022/05/14 03:37:26;;;;;;;3.75;1.63;;;;;;;10.98;74.42;100616.59;5163244;27;20494;-83
2022/05/14 03:39:51;;;;;;;6.03;2.10;;;;;;;10.96;75.17;100615.97;5162606;27;20019;-83
2022/05/14 03:42:17;;;;;;;4.17;1.63;;;;;;;10.92;74.74;100612.03;5162861;27;20034;-83
2022/05/14 03:44:42;;;;;;;4.47;1.77;;;;;;;10.92;74.38;100610.16;5162187;27;20067;-82
2022/05/14 03:47:08;;;;;;;5.63;2.23;;;;;;;10.90;74.82;100614.09;5161860;27;20041;-83
2022/05/14 03:49:33;;;;;;;3.30;1.37;;;;;;;10.87;74.73;100614.50;5163079;27;20039;-82
2022/05/14 03:51:58;;;;;;;3.67;1.70;;;;;;;10.82;74.10;100612.41;5163816;27;20051;-83
2022/05/14 03:54:23;;;;;;;5.10;1.87;;;;;;;10.84;74.16;100612.19;5163901;27;20038;-83
2022/05/14 03:56:49;;;;;;;4.50;1.73;;;;;;;10.83;74.14;100613.22;5162232;27;20347;-82
2022/05/14 03:59:14;;;;;;;5.63;1.33;;;;;;;10.85;74.22;100622.78;5143772;27;20292;-83
2022/05/14 04:01:40;;;;;;;5.95;1.40;;;;;;;10.85;73.56;100613.88;5161575;27;20016;-82
2022/05/14 04:04:05;;;;;;;3.42;1.40;;;;;;;10.87;72.62;100617.19;5164232;27;20062;-82
2022/05/14 04:06:30;;;;;;;3.03;1.60;;;;;;;10.87;72.74;100618.03;5163018;27;20380;-81
2022/05/14 04:08:56;;;;;;;3.58;1.45;;;;;;;10.85;72.64;100625.47;5162835;27;20271;-80
2022/05/14 04:11:21;;;;;;;3.47;1.70;;;;;;;10.85;71.78;100627.34;5166441;27;20424;-82
2022/05/14 04:13:46;;;;;;;4.00;1.40;;;;;;;10.86;71.79;100619.06;5167897;27;20104;-81
2022/05/14 04:16:12;;;;;;;4.53;1.27;;;;;;;10.79;72.31;100621.72;5169139;27;20037;-83
2022/05/14 04:18:38;;;;;;;2.37;0.93;;;;;;;10.82;72.48;100625.88;5169702;27;20174;-80
2022/05/14 04:21:04;;;;;;;3.90;1.40;;;;;;;10.80;72.17;100627.94;5169315;27;20035;-81
2022/05/14 04:23:31;;;;;;;5.90;1.70;;;;;;;10.81;71.90;100635.00;5170613;27;20114;-81
2022/05/14 04:25:57;;;;;;;4.45;1.40;;;;;;;10.83;71.57;100634.78;5169098;27;20479;-81
2022/05/14 04:28:23;;;;;;;3.50;1.15;;;;;;;10.76;71.79;100635.59;5170889;27;20030;-81
2022/05/14 04:30:50;;;;;;;4.07;1.38;;;;;;;10.82;71.44;100631.25;5168510;27;20095;-81
2022/05/14 04:33:16;;;;;;;4.97;1.20;;;;;;;10.81;71.67;100635.00;5166020;27;20030;-80
2022/05/14 04:35:42;;;;;;;3.25;1.20;;;;;;;10.72;72.77;100639.75;5164581;27;20055;-81
2022/05/14 04:38:08;;;;;;;2.63;1.17;;;;;;;10.81;71.49;100645.78;5163800;27;20132;-82
2022/05/14 04:40:34;;;;;;;2.72;1.05;;;;;;;10.91;70.77;100642.72;5143694;27;20034;-84
2022/05/14 04:43:01;;;;;;;3.05;1.13;;;;;;;11.02;71.05;100640.25;5164156;27;20086;-80
2022/05/14 04:45:26;;;;;;;3.20;1.35;;;;;;;10.93;70.81;100643.31;5165398;27;20034;-81
2022/05/14 04:47:52;;;;;;;7.95;1.33;;;;;;;10.94;70.94;100650.38;5164827;27;20034;-82
2022/05/14 04:50:17;;;;;;;3.80;1.20;;;;;;;10.95;70.38;100654.75;5164091;27;20035;-81
2022/05/14 04:52:42;;;;;;;2.83;1.07;;;;;;;10.97;70.74;100653.50;5163780;27;20252;-80
2022/05/14 04:55:09;;;;;;;6.68;1.48;;;;;;;10.95;70.30;100655.56;5162968;27;20031;-80
2022/05/14 04:57:34;;;;;;;3.67;1.27;;;;;;;10.98;70.31;100649.78;5163156;27;20435;-81
2022/05/14 05:00:00;;;;;;;2.83;1.40;;;;;;;10.99;69.64;100656.84;5145824;27;20469;-81
2022/05/14 05:05:12;;;;;;;4.18;1.17;;;;;;;11.06;69.80;100662.28;5164942;27;20050;-81
2022/05/14 05:07:37;;;;;;;4.20;1.10;;;;;;;11.17;69.28;100669.75;5164474;27;20034;-80
2022/05/14 05:10:03;;;;;;;3.28;1.00;;;;;;;11.21;69.37;100668.31;5146043;27;20033;-80
2022/05/14 05:12:28;;;;;;;3.90;1.48;;;;;;;11.30;69.13;100669.78;5146384;27;20046;-80
2022/05/14 05:14:54;;;;;;;3.50;1.00;;;;;;;11.27;68.96;100672.09;5164881;27;20027;-81
2022/05/14 05:17:19;;;;;;;4.53;1.63;;;;;;;11.40;69.27;100677.50;5128430;27;20389;-81
2022/05/14 05:19:44;;;;;;;4.10;1.03;;;;;;;11.36;69.36;100673.56;5164185;27;20087;-81
2022/05/14 05:22:10;;;;;;;4.10;1.40;;;;;;;11.56;68.31;100669.03;5162950;27;20065;-81
2022/05/14 05:24:35;;;;;;;4.20;1.58;;;;;;;11.55;68.07;100678.16;5163265;27;20361;-80
2022/05/14 05:27:00;;;;;;;4.87;1.37;;;;;;;11.52;68.80;100680.44;5163426;27;20183;-82
2022/05/14 05:29:26;;;;;;;3.13;1.10;;;;;;;11.59;68.35;100686.69;5145930;27;20375;-78
2022/05/14 05:31:51;;;;;;;2.80;1.10;;;;;;;11.55;68.21;100693.53;5163237;27;20047;-80
2022/05/14 05:34:17;;;;;;;3.97;1.47;;;;;;;11.63;67.68;100683.38;5163766;27;20030;-81
2022/05/14 05:36:42;;;;;;;3.35;1.15;;;;;;;11.73;67.84;100686.50;5163886;27;20027;-81
2022/05/14 05:39:08;;;;;;;4.38;1.33;;;;;;;11.86;67.30;100677.59;5144567;27;20050;-79
2022/05/14 05:41:33;;;;;;;4.57;1.30;;;;;;;11.83;67.06;100691.50;5145128;27;20031;-79
2022/05/14 05:43:58;;;;;;;6.63;1.93;;;;;;;11.88;67.34;100693.59;5163205;27;20058;-79
2022/05/14 05:46:24;;;;;;;4.13;1.40;;;;;;;11.84;67.84;100687.78;5163266;27;20457;-81
2022/05/14 05:48:49;;;;;;;5.80;1.40;;;;;;;11.82;68.02;100697.97;5163399;27;20050;-80
2022/05/14 05:51:14;;;;;;;5.95;1.67;;;;;;;11.96;66.99;100699.63;5162812;27;20019;-80
2022/05/14 05:59:08;;;;;;;3.58;1.55;;;;;;;11.86;68.70;100704.59;5163420;27;20101;-81
2022/05/14 06:01:33;;;;;;;3.80;1.37;;;;;;;11.96;68.27;100704.19;5163062;27;20377;-82
2022/05/14 06:03:58;;;;;;;4.20;1.33;;;;;;;12.12;67.28;100695.69;5143932;27;20296;-80
2022/05/14 06:06:24;;;;;;;5.95;2.22;;;;;;;12.14;67.29;100701.72;5162875;27;20058;-80
2022/05/14 06:08:50;;;;;;;7.20;1.70;;;;;;;12.16;67.60;100705.03;5165286;27;20035;-79
2022/05/14 06:11:17;;;;;;;4.93;1.90;;;;;;;12.18;67.31;100707.53;5165787;27;20031;-83
2022/05/14 06:13:43;;;;;;;4.47;1.45;;;;;;;12.27;66.71;100715.22;5165357;27;20023;-81
2022/05/14 06:16:10;;;;;;;5.03;1.98;;;;;;;12.42;66.76;100704.16;5146387;27;20094;-81
2022/05/14 06:18:37;;;;;;;7.05;1.92;;;;;;;12.46;66.68;100705.41;5165104;27;20054;-82
2022/05/14 06:21:04;;;;;;;3.97;1.75;;;;;;;12.63;66.83;100705.81;5164648;27;20393;-82
2022/05/14 06:23:29;;;;;;;5.30;1.55;;;;;;;13.07;64.41;100708.59;5164255;27;20027;-82
2022/05/14 06:25:56;;;;;;;3.50;1.57;;;;;;;13.89;63.13;100709.63;5165414;27;20030;-83
2022/05/14 06:28:21;;;;;;;4.45;1.63;;;;;;;14.91;59.70;100703.66;5163536;27;20041;-82
2022/05/14 06:30:47;;;;;;;4.10;1.83;;;;;;;15.38;56.88;100703.09;5162791;27;20022;-81
2022/05/14 06:33:14;;;;;;;4.75;1.65;;;;;;;15.75;56.06;100701.97;5164282;27;20080;-83
2022/05/14 06:35:40;;;;;;;6.38;1.92;;;;;;;16.80;53.27;100704.78;5145319;27;20118;-81
2022/05/14 06:38:06;;;;;;;4.95;1.80;;;;;;;16.82;53.40;100702.66;5162008;27;20069;-80
2022/05/14 06:40:33;;;;;;;3.55;1.38;;;;;;;16.68;53.54;100717.56;5162477;27;20045;-80
2022/05/14 06:42:59;;;;;;;6.18;1.65;;;;;;;16.64;52.94;100708.25;5142952;27;20039;-81
2022/05/14 06:45:24;;;;;;;;;;;;;;;17.78;50.14;100711.09;5145658;27;20018;-81
2022/05/14 06:47:51;;;;;;;5.68;1.83;;;;;;;16.98;52.14;100711.97;5144094;27;20364;-82
2022/05/14 06:50:17;;;;;;;5.57;1.50;;;;;;;17.40;51.60;100718.00;5163717;27;20503;-82
2022/05/14 06:52:46;;;;;;;4.22;1.90;;;;;;;18.00;50.81;100725.69;5164546;27;20018;-83
2022/05/14 06:55:16;;;;;;;5.47;1.80;;;;;;;16.82;53.71;100716.28;5163584;27;20034;-82
2022/05/14 06:57:42;;;;;;;5.70;1.90;;;;;;;16.94;52.56;100724.41;5144433;27;20111;-82
2022/05/14 07:00:08;;;;;;;6.18;2.78;;;;;;;17.33;52.43;100722.78;5163264;27;20445;-82
2022/05/14 07:02:35;;;;;;;5.57;2.22;;;;;;;16.81;53.10;100725.50;5163333;27;20109;-83
2022/05/14 07:07:47;;;;;;;7.13;2.13;;;;;;;15.82;56.99;100731.75;5162912;27;20167;-81
2022/05/14 07:10:14;;;;;;;9.75;2.72;;;;;;;16.31;55.35;100728.63;5162149;27;20117;-82
2022/05/14 07:12:39;;;;;;;5.00;2.15;;;;;;;16.16;55.32;100731.00;5162668;27;20083;-82
2022/05/14 07:15:06;;;;;;;;;;;;;;;16.11;56.70;100733.59;5144046;27;20050;-82
2022/05/14 07:17:32;;;;;;;7.32;2.83;;;;;;;15.50;59.75;100736.56;5162828;27;19911;-82
2022/05/14 07:19:57;;;;;;;;;;;;;;;15.50;58.99;100731.94;5163856;27;20529;-81
2022/05/14 07:22:23;;;;;;;6.43;2.20;;;;;;;15.57;59.12;100738.16;5163656;27;19955;-81
2022/05/14 07:24:48;;;;;;;;;;;;;;;15.10;60.19;100738.94;5163836;27;20052;-82
2022/05/14 07:27:14;;;;;;;5.47;1.73;;;;;;;15.13;61.33;100733.06;5164673;27;19914;-81
2022/05/14 07:29:43;;;;;;;7.03;2.20;;;;;;;15.03;60.97;100724.63;5164930;27;20260;-82
2022/05/14 07:32:10;;;;;;;6.65;2.30;;;;;;;15.04;62.49;100735.25;5145353;27;20030;-82
2022/05/14 07:34:36;;;;;;;7.82;2.50;;;;;;;15.36;60.46;100730.47;5164455;27;20031;-82
2022/05/14 07:37:05;;;;;;;;;;;;;;;15.46;60.44;100735.34;5146492;27;20031;-82
2022/05/14 07:39:35;;;;;;;6.13;1.90;;;;;;;15.43;60.57;100733.09;5164246;27;19919;-82
2022/05/14 07:42:08;;;;;;;7.82;2.75;;;;;;;15.13;61.49;100735.78;5163442;27;20051;-81
2022/05/14 07:44:37;;;;;;;5.78;2.55;;;;;;;15.40;61.14;100728.97;5163221;27;20034;-80
2022/05/14 07:47:03;;;;;;;6.32;2.40;;;;;;;15.02;62.58;100734.66;5167311;27;20023;-79
2022/05/14 07:49:29;;;;;;;7.18;2.67;;;;;;;15.08;62.80;100727.47;5165581;27;20035;-80
2022/05/14 07:51:55;;;;;;;8.75;3.08;;;;;;;15.38;61.15;100722.09;5169409;27;20049;-80
2022/05/14 07:54:24;;;;;;;10.70;3.05;;;;;;;15.24;61.66;100724.13;5151653;27;20034;-81
2022/05/14 07:56:50;;;;;;;6.85;3.08;;;;;;;15.36;61.43;100725.03;5169117;27;20369;-82
2022/05/14 07:59:18;;;;;;;8.27;2.20;;;;;;;15.53;61.43;100730.66;5152661;27;20043;-82
2022/05/14 08:01:44;;;;;;;6.55;2.33;;;;;;;15.38;61.60;100730.25;5171051;27;20026;-82
2022/05/14 08:04:11;;;;;;;4.70;2.20;;;;;;;15.59;61.30;100730.59;5152315;27;20389;-81
2022/05/14 08:06:39;;;;;;;6.05;2.45;;;;;;;15.72;61.10;100721.44;5153216;27;20027;-82
2022/05/14 08:09:05;;;;;;;5.05;2.30;;;;;;;15.82;60.69;100723.59;5152329;27;20062;-82
2022/05/14 08:11:31;;;;;;;6.90;3.30;;;;;;;15.60;61.08;100723.28;5149180;27;20052;-82
2022/05/14 08:13:58;;;;;;;;;;;;;;;15.73;61.37;100720.38;5148077;27;20031;-82
2022/05/14 08:16:23;;;;;;;6.00;1.55;;;;;;;15.72;60.98;100720.63;5167494;27;19975;-83
2022/05/14 08:18:49;;;;;;;6.63;2.00;;;;;;;15.84;60.89;100724.19;5148693;27;20027;-85
2022/05/14 08:26:44;;;;;;;6.13;1.67;;;;;;;16.31;59.31;100720.47;5169881;27;20084;-83
2022/05/14 08:29:10;;;;;;;8.32;2.33;;;;;;;15.88;60.10;100726.22;5167054;27;20056;-82
2022/05/14 08:31:35;;;;;;;7.75;1.90;;;;;;;16.01;60.50;100721.63;5148157;27;20031;-85
2022/05/14 08:34:00;;;;;;;;;;;;;;;16.36;59.22;100718.97;5149539;27;20121;-83
2022/05/14 08:36:29;;;;;;;6.50;1.60;;;;;;;16.59;58.47;100716.25;5166824;27;19907;-83
2022/05/14 08:38:54;;;;;;;7.25;2.03;;;;;;;16.43;58.72;100717.78;5148408;27;20086;-85
2022/05/14 08:41:24;;;;;;;5.55;2.10;;;;;;;16.58;58.04;100720.88;5147181;27;20066;-84
2022/05/14 08:43:53;;;;;;;4.15;1.52;;;;;;;16.20;59.52;100725.91;5164919;27;20035;-84
2022/05/14 08:46:21;;;;;;;5.68;2.17;;;;;;;16.32;59.12;100732.19;5146004;27;20031;-85
2022/05/14 08:48:56;;;;;;;5.55;1.90;;;;;;;16.73;57.98;100725.84;5165170;27;20027;-81
2022/05/14 08:51:34;;;;;;;6.57;2.13;;;;;;;16.67;58.29;100724.06;5166581;27;20547;-80
2022/05/14 08:54:00;;;;;;;5.90;1.63;;;;;;;17.06;57.70;100719.75;5165761;27;20309;-84
2022/05/14 08:56:51;;;;;;;6.95;1.80;;;;;;;17.15;56.49;100731.13;5165595;27;20090;-82
2022/05/14 08:59:48;;;;;;;5.60;1.50;;;;;;;17.14;56.79;100722.13;5166183;27;20039;-81
2022/05/14 09:02:19;;;;;;;5.10;1.90;;;;;;;17.17;57.22;100715.38;5143043;27;20087;-84
2022/05/14 09:04:44;;;;;;;5.03;1.80;;;;;;;17.21;56.92;100709.19;5160311;27;20056;-78
2022/05/14 09:07:10;;;;;;;5.18;2.00;;;;;;;17.20;56.99;100712.97;5161105;27;20027;-79
2022/05/14 09:09:45;;;;;;;;;;;;;;;17.24;56.36;100710.59;5161677;27;20038;-79
2022/05/14 09:12:18;;;;;;;4.65;1.30;;;;;;;16.90;57.62;100717.78;5160417;27;19914;-78
2022/05/14 09:14:44;;;;;;;4.72;1.63;;;;;;;17.11;58.02;100708.97;5159809;27;20022;-78
2022/05/14 09:17:20;;;;;;;6.25;1.83;;;;;;;17.34;56.47;100711.66;5160064;27;20073;-75
2022/05/14 09:19:46;;;;;;;3.90;1.40;;;;;;;17.51;56.51;100711.69;5158083;27;20536;-75
2022/05/14 09:22:31;;;;;;;;;;;;;;;17.64;56.68;100707.88;5158044;27;20054;-76
2022/05/14 09:24:56;;;;;;;5.93;1.70;;;;;;;17.67;56.12;100712.84;5158379;27;20368;-75
2022/05/14 09:27:33;;;;;;;;;;;;;;;17.74;55.65;100716.22;5159358;27;20031;-76
2022/05/14 09:30:03;;;;;;;5.53;1.60;;;;;;;17.63;56.51;100707.00;5158251;27;19914;-75
2022/05/14 09:32:34;;;;;;;3.60;1.77;;;;;;;17.60;56.18;100706.66;5156699;27;20026;-74
2022/05/14 09:35:13;;;;;;;5.85;2.15;;;;;;;17.90;55.46;100707.25;5156616;27;20118;-74
2022/05/14 09:37:40;;;;;;;6.30;1.90;;;;;;;17.87;54.27;100701.47;5156693;27;20038;-75
2022/05/14 09:40:29;;;;;;;8.20;1.98;;;;;;;17.93;54.42;100704.03;5156927;27;20034;-75
2022/05/14 09:43:16;;;;;;;7.68;2.10;;;;;;;17.95;54.18;100703.78;5156102;27;20100;-75
2022/05/14 09:45:43;;;;;;;;;;;;;;;18.09;53.95;100698.84;5157410;27;20027;-74
2022/05/14 09:48:16;;;;;;;7.75;1.55;;;;;;;18.15;52.54;100711.47;5155597;27;19915;-74
2022/05/14 09:50:45;;;;;;;3.30;1.20;;;;;;;18.35;53.02;100714.53;5156139;27;20415;-74
2022/05/14 09:53:10;;;;;;;4.00;1.88;;;;;;;18.54;52.90;100715.94;5156340;27;20027;-74
2022/05/14 09:55:35;;;;;;;;;;;;;;;18.60;52.76;100714.13;5156697;27;20486;-74
2022/05/14 09:58:15;;;;;;;3.77;1.73;;;;;;;18.69;51.70;100707.97;5155997;27;19915;-74
2022/05/14 10:01:03;;;;;;;7.00;1.98;;;;;;;18.79;51.06;100707.31;5156061;27;20113;-74
2022/05/14 10:03:41;;;;;;;6.63;1.80;;;;;;;18.67;51.51;100715.59;5137642;27;20030;-74
2022/05/14 10:06:25;;;;;;;7.78;2.15;;;;;;;18.69;52.16;100716.19;5156028;27;20035;-74
2022/05/14 10:09:17;;;;;;;5.25;1.50;;;;;;;18.69;52.11;100718.06;5155694;27;20034;-75
2022/05/14 10:11:48;;;;;;;4.82;1.40;;;;;;;18.81;51.45;100713.31;5156369;27;20400;-74
2022/05/14 10:14:57;;;;;;;4.53;1.75;;;;;;;18.73;51.63;100717.34;5156826;27;20022;-73
2022/05/14 10:17:31;;;;;;;3.47;1.40;;;;;;;18.63;52.82;100719.09;5156630;27;20052;-75
2022/05/14 10:20:18;;;;;;;7.72;2.30;;;;;;;18.64;52.69;100716.09;5155856;27;20497;-74
2022/05/14 10:29:24;;;;;;;6.07;2.08;;;;;;;19.01;51.68;100713.59;5156116;27;20130;-75
2022/05/14 10:31:59;;;;;;;4.90;1.58;;;;;;;18.93;51.45;100714.06;5156762;27;20109;-74
2022/05/14 10:34:38;;;;;;;5.28;2.22;;;;;;;18.91;51.80;100708.03;5155968;27;20071;-75
2022/05/14 10:37:37;;;;;;;4.28;1.73;;;;;;;19.21;51.24;100713.03;5137066;27;20058;-75
2022/05/14 10:40:13;;;;;;;6.85;1.90;;;;;;;19.21;50.41;100707.56;5155719;27;20132;-74
2022/05/14 10:42:41;;;;;;;;;;;;;;;19.20;50.67;100711.38;5155814;27;20195;-75
2022/05/14 10:45:18;;;;;;;4.85;1.42;;;;;;;19.20;51.24;100716.00;5155369;27;19906;-75
2022/05/14 10:47:59;;;;;;;5.57;2.15;;;;;;;19.48;50.33;100715.81;5155633;27;20031;-75
2022/05/14 10:50:25;;;;;;;9.13;2.03;;;;;;;19.48;50.75;100702.16;5155854;27;20109;-76
2022/05/14 10:52:52;;;;;;;5.57;2.00;;;;;;;19.51;49.99;100715.34;5155167;27;20111;-74
2022/05/14 10:55:24;;;;;;;3.22;1.40;;;;;;;19.64;50.28;100711.38;5155731;27;20031;-74
2022/05/14 10:57:57;;;;;;;5.38;1.85;;;;;;;19.47;50.19;100710.59;5155154;27;20149;-75
2022/05/14 11:00:32;;;;;;;4.57;1.83;;;;;;;19.27;50.92;100708.47;5155615;27;20035;-75
2022/05/14 11:03:31;;;;;;;4.25;1.63;;;;;;;19.12;50.90;100702.81;5137141;27;20053;-75
2022/05/14 11:06:02;;;;;;;6.47;1.67;;;;;;;19.29;50.61;100709.88;5136370;27;20066;-74
2022/05/14 11:08:42;;;;;;;4.07;1.45;;;;;;;19.47;50.05;100713.34;5156029;27;20031;-75
2022/05/14 11:11:16;;;;;;;7.38;1.67;;;;;;;19.66;49.44;100712.78;5155516;27;20050;-74
2022/05/14 11:14:05;;;;;;;6.35;2.10;;;;;;;19.54;49.37;100712.06;5155436;27;20023;-74
2022/05/14 11:16:46;;;;;;;6.70;2.10;;;;;;;19.54;50.08;100703.88;5155816;27;20031;-75
2022/05/14 11:19:26;;;;;;;4.70;1.80;;;;;;;19.62;49.27;100706.16;5155385;27;20440;-75
2022/05/14 11:21:54;;;;;;;5.18;1.83;;;;;;;19.45;49.91;100710.84;5155603;27;20031;-75
2022/05/14 11:24:31;;;;;;;3.65;1.40;;;;;;;19.69;50.02;100706.78;5137816;27;20037;-74
2022/05/14 11:26:56;;;;;;;6.78;2.22;;;;;;;19.92;48.46;100710.25;5155148;27;20087;-74
2022/05/14 11:29:28;;;;;;;7.35;2.75;;;;;;;20.12;46.58;100707.72;5154819;27;20027;-74
2022/05/14 11:32:11;;;;;;;5.15;1.98;;;;;;;20.43;46.66;100709.63;5155017;27;20030;-75
2022/05/14 11:34:37;;;;;;;8.93;3.03;;;;;;;20.47;45.64;100706.34;5155758;27;20034;-75
2022/05/14 11:37:05;;;;;;;8.57;2.42;;;;;;;20.06;46.35;100704.09;5155272;27;20377;-75
2022/05/14 11:39:36;;;;;;;8.75;2.55;;;;;;;20.55;45.96;100703.97;5155176;27;20022;-74
2022/05/14 11:42:24;;;;;;;6.70;2.55;;;;;;;20.42;46.29;100707.16;5156588;27;20369;-80
2022/05/14 11:44:55;;;;;;;5.40;2.08;;;;;;;20.28;46.28;100714.94;5155097;27;20357;-73
2022/05/14 11:47:45;;;;;;;6.55;1.88;;;;;;;20.30;46.39;100701.84;5155036;27;20026;-73
2022/05/14 11:50:13;;;;;;;10.48;2.15;;;;;;;20.52;46.19;100706.41;5136544;27;20030;-74
2022/05/14 11:53:08;;;;;;;6.70;2.30;;;;;;;20.42;46.91;100704.44;5154921;27;20258;-75
2022/05/14 11:56:05;;;;;;;6.57;2.70;;;;;;;20.22;46.77;100704.25;5155410;27;20019;-73
2022/05/14 11:58:30;;;;;;;3.63;1.60;;;;;;;20.11;46.51;100709.63;5153099;27;20042;-74
2022/05/14 12:00:57;;;;;;;4.28;1.50;;;;;;;20.58;43.78;100699.88;5154740;27;20259;-74
2022/05/14 12:03:35;;;;;;;4.80;1.98;;;;;;;20.78;43.54;100705.47;5154618;27;20023;-73
2022/05/14 12:06:14;;;;;;;3.85;1.77;;;;;;;21.06;42.15;100709.72;5154685;27;20027;-74